Time;durP1;ratioP1;P1;durP2;ratioP2;P2;SDS_P1;SDS_P2;PMS_P1;PMS_P2;Temp;Humidity;BMP_temperature;BMP_pressure;BME280_temperature;BME280_humidity;BME280_pressure;Samples;Min_cycle;Max_cycle;Signal;HPM_P1;HPM_P2
2023/07/04 00:01:14;;;;;;;;;;;;;;;26.92;56.80;99464.75;5091542;28;19912;-36
2023/07/04 00:03:40;;;;;;;;;;;;;;;27.00;56.64;99456.88;5091531;28;20303;-36
2023/07/04 00:06:06;;;;;;;;;;;;;;;27.01;56.55;99456.53;5091649;28;19916;-36
2023/07/04 00:08:35;;;;;;;;;;;;;;;27.00;56.61;99448.69;5091691;28;19912;-36
2023/07/04 00:11:01;;;;;;;;;;;;;;;26.95;56.87;99455.09;5091705;28;19919;-36
2023/07/04 00:13:27;;;;;;;;;;;;;;;26.94;57.05;99455.41;5091901;28;19918;-36
2023/07/04 00:15:53;;;;;;;;;;;;;;;26.90;57.57;99445.16;5091586;28;19912;-36
2023/07/04 00:18:22;;;;;;;;;;;;;;;26.96;57.30;99450.44;5091606;28;20271;-36
2023/07/04 00:20:54;;;;;;;;;;;;;;;26.90;57.46;99450.59;5091423;28;20387;-36
2023/07/04 00:23:20;;;;;;;;;;;;;;;26.89;57.73;99450.91;5091466;28;19923;-36
2023/07/04 00:25:46;;;;;;;;;;;;;;;26.83;58.12;99449.47;5091205;28;19912;-36
2023/07/04 00:28:11;;;;;;;;;;;;;;;26.22;59.93;99449.28;5091564;28;19920;-36
2023/07/04 00:30:36;;;;;;;;;;;;;;;26.26;60.00;99455.72;5091539;28;20424;-36
2023/07/04 00:33:02;;;;;;;;;;;;;;;26.33;59.76;99451.41;5090939;28;19973;-36
2023/07/04 00:35:28;;;;;;;;;;;;;;;26.43;59.57;99449.50;5091297;28;19912;-36
2023/07/04 00:37:53;;;;;;;;;;;;;;;26.50;59.61;99449.84;5091177;28;19912;-36
2023/07/04 00:40:18;;;;;;;;;;;;;;;26.44;59.41;99456.56;5091376;28;19959;-36
2023/07/04 00:42:45;;;;;;;;;;;;;;;26.52;59.09;99448.41;5091452;28;20002;-36
2023/07/04 00:45:19;;;;;;;;;;;;;;;26.51;58.92;99454.97;5091566;28;19919;-37
2023/07/04 00:47:52;;;;;;;;;;;;;;;26.57;58.60;99455.63;5091244;28;20287;-36
2023/07/04 00:50:19;;;;;;;;;;;;;;;26.59;58.44;99453.44;5091368;28;19994;-37
2023/07/04 00:52:45;;;;;;;;;;;;;;;26.57;58.57;99455.63;5091378;28;19912;-37
2023/07/04 00:55:11;;;;;;;;;;;;;;;26.62;58.31;99454.72;5091387;28;19912;-37
2023/07/04 00:57:37;;;;;;;;;;;;;;;26.61;58.41;99453.91;5091148;28;19916;-37
2023/07/04 01:00:13;;;;;;;;;;;;;;;26.57;58.36;99463.03;5091171;28;19919;-37
2023/07/04 01:02:39;;;;;;;;;;;;;;;26.56;58.45;99458.69;5090887;28;19969;-37
2023/07/04 01:05:04;;;;;;;;;;;;;;;26.57;58.45;99457.56;5091078;28;19916;-37
2023/07/04 01:07:41;;;;;;;;;;;;;;;26.51;58.68;99454.97;5091065;28;20287;-37
2023/07/04 01:10:12;;;;;;;;;;;;;;;26.52;58.59;99456.59;5090774;28;19951;-37
2023/07/04 01:12:39;;;;;;;;;;;;;;;26.49;58.59;99456.44;5091041;28;19912;-37
2023/07/04 01:15:04;;;;;;;;;;;;;;;26.47;58.47;99459.47;5090418;28;19912;-37
2023/07/04 01:17:30;;;;;;;;;;;;;;;26.45;58.61;99456.25;5093810;28;19942;-37
2023/07/04 01:19:55;;;;;;;;;;;;;;;26.48;58.67;99457.53;5094574;28;19954;-37
2023/07/04 01:22:29;;;;;;;;;;;;;;;26.46;58.67;99459.78;5094452;28;19939;-37
2023/07/04 01:25:04;;;;;;;;;;;;;;;26.45;58.39;99461.72;5094724;28;19912;-37
2023/07/04 01:27:30;;;;;;;;;;;;;;;26.47;58.48;99464.13;5094351;28;19924;-37
2023/07/04 01:30:00;;;;;;;;;;;;;;;26.39;58.46;99467.59;5094636;28;19912;-37
2023/07/04 01:32:26;;;;;;;;;;;;;;;26.34;58.51;99474.03;5094662;28;19981;-37
2023/07/04 01:34:53;;;;;;;;;;;;;;;26.33;59.18;99470.50;5094738;28;20240;-37
2023/07/04 01:37:19;;;;;;;;;;;;;;;26.18;59.84;99467.38;5094400;28;19965;-36
2023/07/04 01:39:44;;;;;;;;;;;;;;;26.05;60.32;99474.53;5094485;28;19920;-37
2023/07/04 01:42:10;;;;;;;;;;;;;;;25.54;61.92;99476.59;5094617;28;20338;-35
2023/07/04 01:44:35;;;;;;;;;;;;;;;24.59;65.25;99475.38;5094420;28;19972;-37
2023/07/04 01:47:02;;;;;;;;;;;;;;;24.03;67.77;99471.00;5094220;28;20028;-37
2023/07/04 01:49:27;;;;;;;;;;;;;;;23.87;69.32;99470.47;5094119;28;19912;-37
2023/07/04 01:51:53;;;;;;;;;;;;;;;24.02;68.99;99480.25;5094042;28;19920;-37
2023/07/04 01:54:18;;;;;;;;;;;;;;;24.07;69.05;99473.94;5094031;28;20009;-37
2023/07/04 01:56:46;;;;;;;;;;;;;;;24.03;68.82;99475.63;5094072;28;19988;-37
2023/07/04 01:59:11;;;;;;;;;;;;;;;24.09;68.68;99479.88;5094124;28;19951;-37
2023/07/04 02:01:36;;;;;;;;;;;;;;;24.10;68.18;99482.28;5094059;28;20524;-37
2023/07/04 02:04:02;;;;;;;;;;;;;;;23.86;69.34;99482.44;5093801;28;20007;-37
2023/07/04 02:06:27;;;;;;;;;;;;;;;23.98;69.43;99479.25;5093824;28;19923;-37
2023/07/04 02:08:53;;;;;;;;;;;;;;;24.10;68.45;99476.84;5093789;28;19912;-35
2023/07/04 02:11:18;;;;;;;;;;;;;;;24.15;68.41;99481.38;5094072;28;19943;-36
2023/07/04 02:13:44;;;;;;;;;;;;;;;23.95;68.04;99482.53;5093397;28;20346;-35
2023/07/04 02:16:09;;;;;;;;;;;;;;;23.94;68.43;99486.38;5093672;28;19912;-35
2023/07/04 02:18:34;;;;;;;;;;;;;;;23.92;68.87;99481.25;5093657;28;19951;-36
2023/07/04 02:21:00;;;;;;;;;;;;;;;23.97;68.18;99485.78;5093551;28;20044;-35
2023/07/04 02:23:25;;;;;;;;;;;;;;;24.07;68.00;99487.53;5093792;28;19924;-36
2023/07/04 02:25:52;;;;;;;;;;;;;;;23.99;68.66;99491.75;5093456;28;20391;-35
2023/07/04 02:28:17;;;;;;;;;;;;;;;23.95;68.37;99485.25;5093395;28;20028;-36
2023/07/04 02:30:51;;;;;;;;;;;;;;;24.06;67.31;99491.34;5093258;28;20003;-36
2023/07/04 02:33:17;;;;;;;;;;;;;;;24.08;67.61;99487.19;5093013;28;19966;-36
2023/07/04 02:35:45;;;;;;;;;;;;;;;24.83;64.76;99489.88;5093445;28;19939;-36
2023/07/04 02:38:10;;;;;;;;;;;;;;;25.30;63.14;99490.50;5092973;28;19935;-36
2023/07/04 02:40:35;;;;;;;;;;;;;;;25.40;62.87;99492.19;5093200;28;20360;-36
2023/07/04 02:43:02;;;;;;;;;;;;;;;25.43;62.42;99505.19;5093369;28;19912;-36
2023/07/04 02:45:27;;;;;;;;;;;;;;;25.52;62.18;99497.91;5093244;28;19912;-36
2023/07/04 02:47:52;;;;;;;;;;;;;;;25.60;61.80;99494.44;5093260;28;19916;-36
2023/07/04 02:50:18;;;;;;;;;;;;;;;25.65;61.78;99496.25;5092982;28;19920;-37
2023/07/04 02:52:43;;;;;;;;;;;;;;;25.65;61.36;99507.13;5093199;28;20369;-37
2023/07/04 02:55:08;;;;;;;;;;;;;;;25.59;61.02;99508.34;5092871;28;20384;-37
2023/07/04 02:57:33;;;;;;;;;;;;;;;25.61;61.07;99495.22;5092925;28;19916;-37
2023/07/04 02:59:59;;;;;;;;;;;;;;;25.55;61.54;99500.81;5092894;28;20447;-36
2023/07/04 03:02:24;;;;;;;;;;;;;;;25.44;62.04;99501.38;5092992;28;19912;-36
2023/07/04 03:04:51;;;;;;;;;;;;;;;25.41;61.93;99500.06;5093005;28;20425;-36
2023/07/04 03:07:17;;;;;;;;;;;;;;;25.45;61.78;99508.41;5092344;28;19916;-37
2023/07/04 03:09:42;;;;;;;;;;;;;;;25.44;61.55;99496.72;5092413;28;19935;-37
2023/07/04 03:12:08;;;;;;;;;;;;;;;25.50;61.55;99498.19;5092404;28;19916;-36
2023/07/04 03:14:33;;;;;;;;;;;;;;;25.18;61.63;99493.75;5092533;28;20355;-36
2023/07/04 03:16:58;;;;;;;;;;;;;;;24.73;62.66;99488.16;5092035;28;19919;-36
2023/07/04 03:19:23;;;;;;;;;;;;;;;25.08;62.06;99493.97;5091787;28;19916;-36
2023/07/04 03:21:49;;;;;;;;;;;;;;;25.20;61.35;99486.06;5091850;28;19916;-36
2023/07/04 03:24:14;;;;;;;;;;;;;;;25.39;60.68;99499.56;5092129;28;19955;-36
2023/07/04 03:26:40;;;;;;;;;;;;;;;25.44;60.51;99498.66;5092000;28;19917;-36
2023/07/04 03:29:07;;;;;;;;;;;;;;;25.55;60.23;99498.09;5092012;28;19919;-36
2023/07/04 03:31:32;;;;;;;;;;;;;;;25.62;60.04;99494.91;5090889;28;19916;-36
2023/07/04 03:33:58;;;;;;;;;;;;;;;25.27;60.47;99504.75;5092039;28;19924;-36
2023/07/04 03:36:23;;;;;;;;;;;;;;;25.03;61.10;99507.69;5092198;28;19988;-36
2023/07/04 03:38:48;;;;;;;;;;;;;;;25.30;60.36;99504.94;5091820;28;20357;-35
2023/07/04 03:41:13;;;;;;;;;;;;;;;25.28;60.54;99504.41;5092032;28;19954;-36
2023/07/04 03:43:39;;;;;;;;;;;;;;;25.63;59.81;99512.09;5092111;28;20284;-36
2023/07/04 03:46:05;;;;;;;;;;;;;;;25.87;59.29;99517.22;5091873;28;19997;-36
2023/07/04 03:48:30;;;;;;;;;;;;;;;26.19;58.39;99515.34;5092405;28;19926;-36
2023/07/04 03:50:55;;;;;;;;;;;;;;;26.39;57.42;99514.81;5091808;28;19912;-37
2023/07/04 03:53:20;;;;;;;;;;;;;;;26.29;57.34;99510.44;5092056;28;19911;-36
2023/07/04 03:55:47;;;;;;;;;;;;;;;26.36;57.01;99514.63;5092300;28;19993;-35
2023/07/04 03:58:12;;;;;;;;;;;;;;;26.52;56.27;99507.59;5091579;28;20024;-37
2023/07/04 04:00:38;;;;;;;;;;;;;;;26.85;55.32;99515.47;5091974;28;20165;-36
2023/07/04 04:03:03;;;;;;;;;;;;;;;27.33;54.33;99509.13;5091670;28;20526;-35
2023/07/04 04:05:29;;;;;;;;;;;;;;;27.80;52.99;99530.34;5092021;28;19916;-36
2023/07/04 04:07:54;;;;;;;;;;;;;;;27.53;53.31;99518.63;5090502;28;19920;-36
2023/07/04 04:10:20;;;;;;;;;;;;;;;27.99;52.25;99505.41;5091024;28;20057;-35
2023/07/04 04:12:45;;;;;;;;;;;;;;;28.52;51.50;99525.19;5091189;28;19919;-36
2023/07/04 04:15:11;;;;;;;;;;;;;;;28.79;50.34;99530.19;5090982;28;20319;-36
2023/07/04 04:17:37;;;;;;;;;;;;;;;28.95;49.99;99524.16;5091093;28;19912;-36
2023/07/04 04:20:06;;;;;;;;;;;;;;;29.20;48.80;99525.94;5090927;28;20260;-36
2023/07/04 04:22:32;;;;;;;;;;;;;;;29.61;48.25;99523.53;5090777;28;19912;-36
2023/07/04 04:24:57;;;;;;;;;;;;;;;30.00;47.34;99529.63;5090652;28;19977;-36
2023/07/04 04:27:23;;;;;;;;;;;;;;;30.39;45.97;99535.69;5090719;28;19916;-36
2023/07/04 04:29:48;;;;;;;;;;;;;;;29.59;47.44;99539.50;5090696;28;19912;-36
2023/07/04 04:32:14;;;;;;;;;;;;;;;28.82;49.59;99539.69;5090023;28;19923;-36
2023/07/04 04:34:40;;;;;;;;;;;;;;;28.36;50.64;99535.84;5090565;28;19928;-36
2023/07/04 04:37:06;;;;;;;;;;;;;;;28.53;50.29;99544.00;5090664;28;19958;-36
2023/07/04 04:39:31;;;;;;;;;;;;;;;28.52;50.48;99550.63;5090999;28;19931;-36
2023/07/04 04:41:56;;;;;;;;;;;;;;;28.75;49.85;99539.38;5090941;28;20368;-35
2023/07/04 04:44:22;;;;;;;;;;;;;;;28.87;49.70;99544.97;5090498;28;20264;-36
2023/07/04 04:46:48;;;;;;;;;;;;;;;29.08;49.19;99545.00;5090473;28;19941;-35
2023/07/04 04:49:14;;;;;;;;;;;;;;;29.42;47.93;99537.72;5090576;28;20011;-35
2023/07/04 04:51:40;;;;;;;;;;;;;;;29.59;47.46;99540.31;5092801;28;20288;-36
2023/07/04 04:54:05;;;;;;;;;;;;;;;30.05;46.71;99548.59;5094492;28;19912;-36
2023/07/04 04:56:33;;;;;;;;;;;;;;;30.00;45.77;99541.38;5094254;28;19942;-35
2023/07/04 04:58:58;;;;;;;;;;;;;;;30.33;45.60;99548.81;5094312;28;19969;-36
2023/07/04 05:01:24;;;;;;;;;;;;;;;30.53;44.73;99535.34;5094440;28;19916;-37
2023/07/04 05:03:54;;;;;;;;;;;;;;;30.68;44.29;99536.59;5094459;28;19912;-36
2023/07/04 05:06:20;;;;;;;;;;;;;;;31.06;43.53;99544.50;5094696;28;19922;-36
2023/07/04 05:08:46;;;;;;;;;;;;;;;31.36;42.57;99544.22;5094580;28;19981;-36
2023/07/04 05:11:11;;;;;;;;;;;;;;;31.69;42.52;99545.94;5093887;28;20312;-36
2023/07/04 05:13:37;;;;;;;;;;;;;;;32.40;40.73;99551.75;5094447;28;19950;-36
2023/07/04 05:16:04;;;;;;;;;;;;;;;32.09;40.15;99556.09;5094224;28;19919;-36
2023/07/04 05:18:30;;;;;;;;;;;;;;;31.63;41.31;99558.34;5093618;28;20044;-36
2023/07/04 05:21:03;;;;;;;;;;;;;;;32.04;40.77;99557.13;5094241;28;19916;-35
2023/07/04 05:23:31;;;;;;;;;;;;;;;32.01;39.99;99552.31;5094206;28;19939;-35
2023/07/04 05:26:00;;;;;;;;;;;;;;;32.37;39.66;99552.47;5093651;28;19919;-35
2023/07/04 05:28:25;;;;;;;;;;;;;;;32.47;39.82;99554.72;5093388;28;19920;-36
2023/07/04 05:31:01;;;;;;;;;;;;;;;32.64;39.62;99559.88;5093708;28;19935;-37
2023/07/04 05:33:26;;;;;;;;;;;;;;;32.87;38.59;99559.22;5093799;28;19924;-35
2023/07/04 05:36:00;;;;;;;;;;;;;;;33.38;38.31;99553.69;5093905;28;19918;-35
2023/07/04 05:38:26;;;;;;;;;;;;;;;33.88;36.38;99551.94;5093999;28;20087;-34
2023/07/04 05:40:51;;;;;;;;;;;;;;;33.52;37.03;99553.19;5094336;28;19965;-35
2023/07/04 05:43:16;;;;;;;;;;;;;;;33.48;37.13;99555.88;5094507;28;19921;-36
2023/07/04 05:45:48;;;;;;;;;;;;;;;32.96;38.09;99567.28;5093881;28;19962;-35
2023/07/04 05:48:14;;;;;;;;;;;;;;;33.13;37.73;99555.91;5094070;28;19927;-35
2023/07/04 05:50:49;;;;;;;;;;;;;;;33.61;36.92;99559.28;5093962;28;20260;-36
2023/07/04 05:53:14;;;;;;;;;;;;;;;33.75;37.03;99558.78;5093918;28;19911;-36
2023/07/04 05:55:39;;;;;;;;;;;;;;;33.83;37.00;99556.97;5093538;28;20024;-35
2023/07/04 05:58:04;;;;;;;;;;;;;;;34.09;36.42;99561.81;5093233;28;19963;-36
2023/07/04 06:00:30;;;;;;;;;;;;;;;35.21;35.07;99548.66;5092372;28;19912;-35
2023/07/04 06:02:55;;;;;;;;;;;;;;;34.45;35.94;99554.16;5091528;28;19912;-42
2023/07/04 06:05:21;;;;;;;;;;;;;;;34.30;36.16;99546.81;5091662;28;19985;-41
2023/07/04 06:07:46;;;;;;;;;;;;;;;34.16;36.50;99552.91;5092138;28;20434;-43
2023/07/04 06:10:11;;;;;;;;;;;;;;;34.43;36.18;99548.22;5092625;28;19912;-42
2023/07/04 06:12:37;;;;;;;;;;;;;;;34.53;35.99;99550.34;5092407;28;19959;-43
2023/07/04 06:15:02;;;;;;;;;;;;;;;34.58;35.09;99550.03;5092614;28;19957;-42
2023/07/04 06:17:28;;;;;;;;;;;;;;;34.89;35.32;99547.38;5092803;28;20007;-42
2023/07/04 06:19:53;;;;;;;;;;;;;;;35.26;34.80;99553.03;5092904;28;19951;-41
2023/07/04 06:22:18;;;;;;;;;;;;;;;36.41;33.44;99554.34;5092777;28;19931;-43
2023/07/04 06:24:46;;;;;;;;;;;;;;;36.59;32.88;99552.53;5092652;28;19912;-42
2023/07/04 06:27:13;;;;;;;;;;;;;;;36.00;32.99;99548.78;5092465;28;19916;-43
2023/07/04 06:29:38;;;;;;;;;;;;;;;35.50;33.53;99542.69;5092356;28;19969;-44
2023/07/04 06:32:04;;;;;;;;;;;;;;;35.39;33.89;99543.34;5092791;28;20365;-41
2023/07/04 06:34:29;;;;;;;;;;;;;;;35.34;34.56;99532.63;5092571;28;20521;-42
2023/07/04 06:36:54;;;;;;;;;;;;;;;35.54;33.60;99538.00;5092634;28;19931;-42
2023/07/04 06:39:20;;;;;;;;;;;;;;;35.25;34.56;99540.41;5092201;28;19954;-42
2023/07/04 06:41:46;;;;;;;;;;;;;;;35.75;33.07;99543.00;5091792;28;19916;-43
2023/07/04 06:44:11;;;;;;;;;;;;;;;36.00;32.98;99537.72;5091418;28;19919;-42
2023/07/04 06:46:36;;;;;;;;;;;;;;;36.36;33.01;99538.06;5091518;28;20168;-42
2023/07/04 06:49:02;;;;;;;;;;;;;;;36.66;32.23;99537.16;5091228;28;19912;-43
2023/07/04 06:51:30;;;;;;;;;;;;;;;36.49;31.80;99536.59;5091338;28;19912;-42
2023/07/04 06:53:55;;;;;;;;;;;;;;;36.32;32.59;99523.41;5091817;28;19912;-42
2023/07/04 06:56:22;;;;;;;;;;;;;;;36.27;32.61;99521.78;5091126;28;19984;-41
2023/07/04 06:58:51;;;;;;;;;;;;;;;36.19;32.88;99517.34;5090982;28;20383;-42
2023/07/04 07:01:17;;;;;;;;;;;;;;;36.14;32.55;99524.03;5091102;28;19924;-42
2023/07/04 07:03:42;;;;;;;;;;;;;;;36.59;32.07;99524.81;5090938;28;19969;-47
2023/07/04 07:06:09;;;;;;;;;;;;;;;36.67;31.91;99527.63;5090973;28;20015;-43
2023/07/04 07:08:34;;;;;;;;;;;;;;;36.83;31.55;99519.84;5091324;28;20260;-42
2023/07/04 07:11:07;;;;;;;;;;;;;;;36.90;31.46;99519.88;5090922;28;20404;-42
2023/07/04 07:13:34;;;;;;;;;;;;;;;36.88;31.54;99515.91;5090200;28;19908;-43
2023/07/04 07:16:08;;;;;;;;;;;;;;;36.98;31.34;99524.28;5091473;28;19982;-42
2023/07/04 07:18:34;;;;;;;;;;;;;;;37.21;31.06;99526.00;5090951;28;19961;-41
2023/07/04 07:21:01;;;;;;;;;;;;;;;37.35;29.92;99511.41;5091271;28;20628;-43
2023/07/04 07:23:27;;;;;;;;;;;;;;;38.08;29.25;99508.47;5091068;28;19923;-43
2023/07/04 07:25:59;;;;;;;;;;;;;;;38.05;29.13;99509.22;5090759;28;19913;-43
2023/07/04 07:28:25;;;;;;;;;;;;;;;37.27;30.50;99509.78;5091094;28;19962;-43
2023/07/04 07:31:00;;;;;;;;;;;;;;;37.12;30.48;99520.78;5090847;28;19920;-43
2023/07/04 07:33:26;;;;;;;;;;;;;;;36.76;31.58;99514.25;5089069;28;19995;-43
2023/07/04 07:35:51;;;;;;;;;;;;;;;37.30;30.29;99515.34;5091019;28;20364;-45
2023/07/04 07:38:16;;;;;;;;;;;;;;;36.99;30.64;99511.19;5089922;28;19919;-43
2023/07/04 07:40:48;;;;;;;;;;;;;;;36.94;30.83;99506.06;5090453;28;19912;-44
2023/07/04 07:43:13;;;;;;;;;;;;;;;36.83;31.39;99507.97;5091090;28;19986;-42
2023/07/04 07:45:40;;;;;;;;;;;;;;;36.68;32.00;99507.88;5090977;28;20344;-43
2023/07/04 07:48:05;;;;;;;;;;;;;;;37.14;30.94;99501.81;5090330;28;19916;-43
2023/07/04 07:50:33;;;;;;;;;;;;;;;37.29;30.44;99499.88;5089941;28;20017;-42
2023/07/04 07:52:58;;;;;;;;;;;;;;;37.28;30.83;99501.09;5090357;28;19961;-41
2023/07/04 07:55:23;;;;;;;;;;;;;;;37.41;31.31;99498.72;5090236;28;20004;-42
2023/07/04 07:57:49;;;;;;;;;;;;;;;37.41;30.98;99495.16;5090344;28;19916;-42
2023/07/04 08:00:14;;;;;;;;;;;;;;;37.26;30.24;99491.53;5090461;28;19912;-43
2023/07/04 08:02:40;;;;;;;;;;;;;;;36.92;31.52;99500.09;5090465;28;19915;-43
2023/07/04 08:05:05;;;;;;;;;;;;;;;36.39;31.44;99496.56;5090313;28;19912;-44
2023/07/04 08:07:30;;;;;;;;;;;;;;;35.84;31.70;99495.66;5090013;28;20273;-42
2023/07/04 08:09:56;;;;;;;;;;;;;;;36.37;31.19;99501.69;5090263;28;20350;-43
2023/07/04 08:12:21;;;;;;;;;;;;;;;36.81;30.93;99505.56;5090504;28;20320;-44
2023/07/04 08:14:48;;;;;;;;;;;;;;;37.09;30.29;99499.38;5090413;28;19912;-44
2023/07/04 08:17:13;;;;;;;;;;;;;;;36.97;30.10;99508.81;5090284;28;19912;-45
2023/07/04 08:19:38;;;;;;;;;;;;;;;36.83;31.22;99503.22;5090541;28;19968;-42
2023/07/04 08:22:04;;;;;;;;;;;;;;;37.05;30.39;99503.31;5089820;28;19912;-43
2023/07/04 08:24:29;;;;;;;;;;;;;;;37.12;30.00;99495.03;5090115;28;19988;-43
2023/07/04 08:26:55;;;;;;;;;;;;;;;36.90;30.86;99497.72;5089877;28;19916;-43
2023/07/04 08:29:20;;;;;;;;;;;;;;;36.67;30.27;99495.22;5090358;28;19916;-40
2023/07/04 08:31:46;;;;;;;;;;;;;;;35.96;31.91;99489.81;5090513;28;20011;-42
2023/07/04 08:34:11;;;;;;;;;;;;;;;36.10;31.34;99492.75;5089855;28;20077;-43
2023/07/04 08:36:39;;;;;;;;;;;;;;;36.27;31.78;99494.09;5089718;28;19932;-43
2023/07/04 08:39:05;;;;;;;;;;;;;;;36.24;31.62;99485.75;5089844;28;19992;-44
2023/07/04 08:41:42;;;;;;;;;;;;;;;36.34;30.66;99490.56;5089555;28;19983;-43
2023/07/04 08:44:21;;;;;;;;;;;;;;;36.19;30.76;99498.78;5089769;28;19912;-43
2023/07/04 08:46:48;;;;;;;;;;;;;;;35.56;32.55;99488.59;5089704;28;19939;-43
2023/07/04 08:49:22;;;;;;;;;;;;;;;35.63;32.05;99495.00;5089689;28;19912;-43
2023/07/04 08:51:49;;;;;;;;;;;;;;;35.41;33.42;99488.47;5089827;28;19920;-42
2023/07/04 08:54:15;;;;;;;;;;;;;;;34.91;33.93;99487.00;5089667;28;19912;-42
2023/07/04 08:56:41;;;;;;;;;;;;;;;35.41;32.57;99480.16;5089590;28;20375;-42
2023/07/04 08:59:12;;;;;;;;;;;;;;;35.15;32.51;99482.97;5089552;28;19912;-45
2023/07/04 09:01:55;;;;;;;;;;;;;;;34.89;31.85;99481.06;5089508;28;19912;-43
2023/07/04 09:04:26;;;;;;;;;;;;;;;35.05;33.09;99481.66;5089858;28;19923;-41
2023/07/04 09:06:58;;;;;;;;;;;;;;;34.80;31.90;99481.31;5089696;28;19916;-43
2023/07/04 09:09:29;;;;;;;;;;;;;;;35.08;32.86;99475.38;5089536;28;19985;-44
2023/07/04 09:11:55;;;;;;;;;;;;;;;34.56;32.70;99488.06;5089570;28;19991;-41
2023/07/04 09:14:27;;;;;;;;;;;;;;;34.41;33.91;99474.03;5089499;28;20431;-42
2023/07/04 09:16:53;;;;;;;;;;;;;;;34.39;34.69;99481.09;5089150;28;19912;-42
2023/07/04 09:19:19;;;;;;;;;;;;;;;34.87;33.07;99475.91;5089468;28;19916;-42
2023/07/04 09:21:44;;;;;;;;;;;;;;;35.01;33.40;99481.63;5089288;28;19919;-43
2023/07/04 09:24:10;;;;;;;;;;;;;;;35.04;33.81;99478.09;5089290;28;19922;-42
2023/07/04 09:26:41;;;;;;;;;;;;;;;34.20;35.87;99485.53;5089012;28;19959;-43
2023/07/04 09:29:07;;;;;;;;;;;;;;;34.75;32.83;99479.69;5089509;28;19960;-42
2023/07/04 09:31:34;;;;;;;;;;;;;;;34.57;34.42;99478.59;5089296;28;19916;-42
2023/07/04 09:34:07;;;;;;;;;;;;;;;34.85;32.92;99472.72;5089331;28;20060;-42
2023/07/04 09:36:33;;;;;;;;;;;;;;;34.29;34.93;99479.75;5089769;28;19973;-41
2023/07/04 09:39:00;;;;;;;;;;;;;;;34.32;35.39;99461.66;5092919;28;20067;-43
2023/07/04 09:41:28;;;;;;;;;;;;;;;34.44;34.37;99480.75;5092799;28;19913;-44
2023/07/04 09:43:55;;;;;;;;;;;;;;;34.62;33.72;99470.00;5092732;28;20295;-42
2023/07/04 09:46:28;;;;;;;;;;;;;;;34.73;34.63;99472.91;5092546;28;20063;-44
2023/07/04 09:48:54;;;;;;;;;;;;;;;34.56;33.57;99479.78;5092890;28;20383;-43
2023/07/04 09:51:20;;;;;;;;;;;;;;;34.88;33.64;99477.50;5092434;28;19918;-42
2023/07/04 09:53:45;;;;;;;;;;;;;;;35.09;33.24;99487.22;5092646;28;20006;-42
2023/07/04 09:56:11;;;;;;;;;;;;;;;34.18;33.10;99482.34;5092664;28;19912;-42
2023/07/04 09:58:36;;;;;;;;;;;;;;;34.19;34.32;99475.63;5092786;28;20019;-43
2023/07/04 10:01:01;;;;;;;;;;;;;;;34.58;33.39;99467.19;5092975;28;19919;-45
2023/07/04 10:03:27;;;;;;;;;;;;;;;34.83;33.75;99466.75;5092508;28;19916;-43
2023/07/04 10:05:52;;;;;;;;;;;;;;;35.20;33.48;99466.06;5092680;28;20340;-41
2023/07/04 10:08:17;;;;;;;;;;;;;;;35.18;32.75;99465.66;5092491;28;20407;-44
2023/07/04 10:10:53;;;;;;;;;;;;;;;35.10;32.41;99461.97;5092620;28;19942;-42
2023/07/04 10:13:20;;;;;;;;;;;;;;;35.37;31.54;99459.16;5092724;28;20311;-43
2023/07/04 10:15:46;;;;;;;;;;;;;;;35.00;32.64;99457.91;5092306;28;20319;-41
2023/07/04 10:18:31;;;;;;;;;;;;;;;34.44;33.06;99431.03;5092373;28;19924;-43
2023/07/04 10:20:58;;;;;;;;;;;;;;;34.84;33.20;99429.66;5091985;28;19969;-43
2023/07/04 10:23:26;;;;;;;;;;;;;;;34.81;33.30;99430.41;5091914;28;19916;-43
2023/07/04 10:25:52;;;;;;;;;;;;;;;34.95;32.89;99425.06;5091906;28;19916;-43
2023/07/04 10:28:19;;;;;;;;;;;;;;;34.81;32.42;99427.66;5091990;28;19966;-42
2023/07/04 10:30:48;;;;;;;;;;;;;;;34.68;33.09;99418.78;5091978;28;19912;-45
2023/07/04 10:33:24;;;;;;;;;;;;;;;35.41;32.20;99415.75;5091993;28;19928;-43
2023/07/04 10:35:49;;;;;;;;;;;;;;;35.62;32.04;99435.34;5091962;28;19969;-42
2023/07/04 10:38:24;;;;;;;;;;;;;;;35.15;32.78;99416.63;5091944;28;19912;-44
2023/07/04 10:40:49;;;;;;;;;;;;;;;35.20;32.90;99408.00;5092069;28;20006;-42
2023/07/04 10:43:22;;;;;;;;;;;;;;;35.62;32.20;99415.16;5091544;28;19951;-42
2023/07/04 10:45:48;;;;;;;;;;;;;;;36.05;31.31;99420.31;5091483;28;19972;-43
2023/07/04 10:48:16;;;;;;;;;;;;;;;35.04;32.27;99411.75;5090416;28;19916;-43
2023/07/04 10:50:44;;;;;;;;;;;;;;;35.01;32.27;99415.28;5091659;28;19912;-42
2023/07/04 10:53:09;;;;;;;;;;;;;;;35.33;31.76;99414.09;5091669;28;19912;-43
2023/07/04 10:55:41;;;;;;;;;;;;;;;35.78;31.22;99407.44;5091816;28;19919;-43
2023/07/04 10:58:16;;;;;;;;;;;;;;;36.03;30.79;99412.38;5091600;28;20268;-43
2023/07/04 11:00:53;;;;;;;;;;;;;;;35.32;31.94;99401.41;5091578;28;19918;-43
2023/07/04 11:03:25;;;;;;;;;;;;;;;35.57;31.68;99396.94;5091180;28;20041;-44
2023/07/04 11:05:53;;;;;;;;;;;;;;;35.42;31.37;99403.50;5091269;28;19916;-44
2023/07/04 11:08:21;;;;;;;;;;;;;;;35.00;32.53;99386.03;5091251;28;19924;-43
2023/07/04 11:10:51;;;;;;;;;;;;;;;34.78;32.49;99389.72;5091143;28;20014;-43
2023/07/04 11:13:17;;;;;;;;;;;;;;;34.91;33.20;99376.44;5091150;28;20442;-42
2023/07/04 11:15:46;;;;;;;;;;;;;;;35.50;31.82;99380.28;5091187;28;19923;-42
2023/07/04 11:18:18;;;;;;;;;;;;;;;34.98;33.43;99365.50;5091156;28;19912;-43
2023/07/04 11:21:01;;;;;;;;;;;;;;;35.27;32.30;99368.59;5091267;28;19990;-42
2023/07/04 11:23:41;;;;;;;;;;;;;;;35.32;32.73;99380.09;5091115;28;19912;-42
2023/07/04 11:26:08;;;;;;;;;;;;;;;35.34;32.32;99361.16;5090715;28;19912;-43
2023/07/04 11:28:36;;;;;;;;;;;;;;;34.48;33.48;99362.84;5091203;28;19939;-43
2023/07/04 11:31:13;;;;;;;;;;;;;;;34.09;33.19;99371.34;5090827;28;19916;-42
2023/07/04 11:33:53;;;;;;;;;;;;;;;34.36;32.77;99363.09;5090800;28;20040;-43
2023/07/04 11:36:28;;;;;;;;;;;;;;;34.55;32.56;99364.91;5090736;28;19940;-42
2023/07/04 11:38:56;;;;;;;;;;;;;;;34.20;33.03;99354.97;5090753;28;19930;-42
2023/07/04 11:41:36;;;;;;;;;;;;;;;34.19;32.79;99354.16;5090461;28;19916;-46
2023/07/04 11:44:13;;;;;;;;;;;;;;;34.46;32.56;99354.97;5090197;28;20042;-42
2023/07/04 11:46:40;;;;;;;;;;;;;;;34.77;31.28;99354.97;5090258;28;19945;-43
2023/07/04 11:49:14;;;;;;;;;;;;;;;35.15;30.95;99342.78;5090304;28;19912;-42
2023/07/04 11:51:40;;;;;;;;;;;;;;;35.46;30.34;99346.25;5089231;28;19915;-43
2023/07/04 11:54:06;;;;;;;;;;;;;;;35.37;30.37;99349.31;5090848;28;19969;-42
2023/07/04 11:56:32;;;;;;;;;;;;;;;35.73;29.65;99346.13;5090341;28;20071;-43
2023/07/04 11:59:18;;;;;;;;;;;;;;;34.75;31.32;99338.78;5090369;28;20434;-42
2023/07/04 12:01:55;;;;;;;;;;;;;;;35.31;30.32;99336.22;5090256;28;19958;-42
2023/07/04 12:04:35;;;;;;;;;;;;;;;35.32;30.46;99335.84;5090443;28;19916;-42
2023/07/04 12:07:05;;;;;;;;;;;;;;;35.68;29.16;99336.22;5090286;28;19920;-43
2023/07/04 12:09:34;;;;;;;;;;;;;;;36.16;28.52;99333.38;5090242;28;19973;-42
2023/07/04 12:12:00;;;;;;;;;;;;;;;35.28;29.33;99335.03;5090302;28;19994;-43
2023/07/04 12:14:25;;;;;;;;;;;;;;;35.38;30.01;99331.56;5090254;28;19919;-45
2023/07/04 12:16:51;;;;;;;;;;;;;;;35.53;29.41;99329.72;5090562;28;19912;-45
2023/07/04 12:19:17;;;;;;;;;;;;;;;36.07;28.53;99318.28;5090119;28;19939;-41
2023/07/04 12:21:43;;;;;;;;;;;;;;;36.39;28.46;99324.81;5090437;28;19912;-45
2023/07/04 12:24:09;;;;;;;;;;;;;;;36.45;27.55;99330.78;5090023;28;20006;-43
2023/07/04 12:26:34;;;;;;;;;;;;;;;36.23;28.22;99316.00;5090122;28;20023;-43
2023/07/04 12:29:03;;;;;;;;;;;;;;;36.28;27.79;99321.19;5090258;28;20373;-41
2023/07/04 12:31:29;;;;;;;;;;;;;;;35.65;28.58;99314.81;5090130;28;19916;-45
2023/07/04 12:33:55;;;;;;;;;;;;;;;35.62;29.09;99313.59;5089919;28;19924;-43
2023/07/04 12:36:22;;;;;;;;;;;;;;;35.92;29.68;99309.88;5089892;28;19916;-42
2023/07/04 12:38:54;;;;;;;;;;;;;;;35.77;29.25;99305.44;5090042;28;20389;-42
2023/07/04 12:41:21;;;;;;;;;;;;;;;35.62;29.19;99304.47;5089872;28;20340;-44
2023/07/04 12:43:51;;;;;;;;;;;;;;;35.91;28.95;99299.19;5090030;28;19954;-43
2023/07/04 12:46:19;;;;;;;;;;;;;;;36.00;28.92;99300.47;5089885;28;19912;-43
2023/07/04 12:48:45;;;;;;;;;;;;;;;35.74;28.59;99300.69;5090056;28;20037;-42